KTMB/TMB METAR and TAF weather

Enter ICAO airport designator
Station Type Date Time Source
KTMB METAR 2019/04/24 21:53 UTC NOAA

KTMB 242153Z 10010KT 10SM CLR 27/17 A2998 RMK AO2 SLP153 T02670167


Station Type Date Time Source
KTMB Decoded METAR 2019/04/24 21:53 UTC NOAA

KENDALL-TAMIAMI EXEC AIRPORT , FL, United States (KTMB) 25-39N 080-26W 2M
Apr 24, 2019 - 05:53 PM EDT / 2019.04.24 2153 UTC
Wind: from the E (100 degrees) at 12 MPH (10 KT):0
Visibility: 10 mile(s):0
Sky conditions: clear
Temperature: 80.1 F (26.7 C)
Dew Point: 62.1 F (16.7 C)
Relative Humidity: 54%
Pressure (altimeter): 29.98 in. Hg (1015 hPa)
ob: KTMB 242153Z 10010KT 10SM CLR 27/17 A2998 RMK AO2 SLP153 T02670167
cycle: 22

Station Type Date Time Source
KTMB TAF 2019/04/24 21:16 UTC NOAA

TAF
AMD KTMB 242114Z 2421/2518 VRB05KT P6SM SCT050
FM250100 VRB03KT P6SM SKC
FM251400 15010KT P6SM SCT045

Example: see airport list